sensor_id;sensor_type;location;lat;lon;timestamp;temperature;humidity
8565;DHT22;4320;51.498;6.556;2023-11-21T00:01:16;9.50;99.90
8565;DHT22;4320;51.498;6.556;2023-11-21T00:03:42;9.30;99.90
8565;DHT22;4320;51.498;6.556;2023-11-21T00:06:08;9.40;99.90
8565;DHT22;4320;51.498;6.556;2023-11-21T00:08:34;9.40;99.90
8565;DHT22;4320;51.498;6.556;2023-11-21T00:11:00;9.40;99.90
8565;DHT22;4320;51.498;6.556;2023-11-21T00:13:26;9.40;99.90
8565;DHT22;4320;51.498;6.556;2023-11-21T00:15:52;9.40;99.90
8565;DHT22;4320;51.498;6.556;2023-11-21T00:18:18;9.60;99.90
8565;DHT22;4320;51.498;6.556;2023-11-21T00:20:44;9.70;99.90
8565;DHT22;4320;51.498;6.556;2023-11-21T00:23:10;9.70;99.90
8565;DHT22;4320;51.498;6.556;2023-11-21T00:25:35;9.70;99.90
8565;DHT22;4320;51.498;6.556;2023-11-21T00:28:01;9.80;99.90
8565;DHT22;4320;51.498;6.556;2023-11-21T00:30:27;9.80;99.90
8565;DHT22;4320;51.498;6.556;2023-11-21T00:32:54;9.90;99.90
8565;DHT22;4320;51.498;6.556;2023-11-21T00:35:20;9.90;99.90
8565;DHT22;4320;51.498;6.556;2023-11-21T00:37:45;9.90;99.90
8565;DHT22;4320;51.498;6.556;2023-11-21T00:40:11;10.00;99.90
8565;DHT22;4320;51.498;6.556;2023-11-21T00:42:37;10.00;99.90
8565;DHT22;4320;51.498;6.556;2023-11-21T00:45:03;10.00;99.90
8565;DHT22;4320;51.498;6.556;2023-11-21T00:47:29;10.00;99.90
8565;DHT22;4320;51.498;6.556;2023-11-21T00:49:54;10.00;99.90
8565;DHT22;4320;51.498;6.556;2023-11-21T00:52:20;10.10;99.90
8565;DHT22;4320;51.498;6.556;2023-11-21T00:54:46;10.10;99.90
8565;DHT22;4320;51.498;6.556;2023-11-21T00:57:13;10.10;99.90
8565;DHT22;4320;51.498;6.556;2023-11-21T00:59:39;10.10;99.90
8565;DHT22;4320;51.498;6.556;2023-11-21T01:02:05;10.00;99.90
8565;DHT22;4320;51.498;6.556;2023-11-21T01:04:30;10.10;99.90
8565;DHT22;4320;51.498;6.556;2023-11-21T01:06:57;10.10;99.90
8565;DHT22;4320;51.498;6.556;2023-11-21T01:09:23;10.10;99.90
8565;DHT22;4320;51.498;6.556;2023-11-21T01:11:49;10.10;99.90
8565;DHT22;4320;51.498;6.556;2023-11-21T01:14:15;10.00;99.90
8565;DHT22;4320;51.498;6.556;2023-11-21T01:16:40;10.00;99.90
8565;DHT22;4320;51.498;6.556;2023-11-21T01:19:06;10.00;99.90
8565;DHT22;4320;51.498;6.556;2023-11-21T01:21:32;10.10;99.90
8565;DHT22;4320;51.498;6.556;2023-11-21T01:23:57;10.10;99.90
8565;DHT22;4320;51.498;6.556;2023-11-21T01:26:23;10.10;99.90
8565;DHT22;4320;51.498;6.556;2023-11-21T01:28:49;10.10;99.90
8565;DHT22;4320;51.498;6.556;2023-11-21T01:31:15;10.20;99.90
8565;DHT22;4320;51.498;6.556;2023-11-21T01:33:41;10.10;99.90
8565;DHT22;4320;51.498;6.556;2023-11-21T01:36:07;10.00;99.90
8565;DHT22;4320;51.498;6.556;2023-11-21T01:38:32;10.00;99.90
8565;DHT22;4320;51.498;6.556;2023-11-21T01:40:58;9.80;99.90
8565;DHT22;4320;51.498;6.556;2023-11-21T01:43:26;9.80;99.90
8565;DHT22;4320;51.498;6.556;2023-11-21T01:45:54;9.80;99.90
8565;DHT22;4320;51.498;6.556;2023-11-21T01:48:22;9.90;99.90
8565;DHT22;4320;51.498;6.556;2023-11-21T01:50:48;10.00;99.90
8565;DHT22;4320;51.498;6.556;2023-11-21T01:53:14;10.10;99.90
8565;DHT22;4320;51.498;6.556;2023-11-21T01:55:41;10.10;99.90
8565;DHT22;4320;51.498;6.556;2023-11-21T01:58:07;10.10;99.90
8565;DHT22;4320;51.498;6.556;2023-11-21T02:00:34;10.20;99.90
8565;DHT22;4320;51.498;6.556;2023-11-21T02:03:00;10.20;99.90
8565;DHT22;4320;51.498;6.556;2023-11-21T02:05:25;10.20;99.90
8565;DHT22;4320;51.498;6.556;2023-11-21T02:07:51;10.20;99.90
8565;DHT22;4320;51.498;6.556;2023-11-21T02:10:18;10.10;99.90
8565;DHT22;4320;51.498;6.556;2023-11-21T02:12:50;9.90;99.90
8565;DHT22;4320;51.498;6.556;2023-11-21T02:15:17;9.80;99.90
8565;DHT22;4320;51.498;6.556;2023-11-21T02:17:46;9.80;99.90
8565;DHT22;4320;51.498;6.556;2023-11-21T02:20:13;9.90;99.90
8565;DHT22;4320;51.498;6.556;2023-11-21T02:22:53;10.00;99.90
8565;DHT22;4320;51.498;6.556;2023-11-21T02:25:27;10.10;99.90
8565;DHT22;4320;51.498;6.556;2023-11-21T02:27:56;10.00;99.90
8565;DHT22;4320;51.498;6.556;2023-11-21T02:30:23;10.00;99.90
8565;DHT22;4320;51.498;6.556;2023-11-21T02:32:50;10.20;99.90
8565;DHT22;4320;51.498;6.556;2023-11-21T02:35:18;10.30;99.90
8565;DHT22;4320;51.498;6.556;2023-11-21T02:37:47;10.40;99.90
8565;DHT22;4320;51.498;6.556;2023-11-21T02:40:12;10.40;99.90
8565;DHT22;4320;51.498;6.556;2023-11-21T02:42:39;10.30;99.90
8565;DHT22;4320;51.498;6.556;2023-11-21T02:45:06;10.30;99.90
8565;DHT22;4320;51.498;6.556;2023-11-21T02:47:32;10.40;99.90
8565;DHT22;4320;51.498;6.556;2023-11-21T02:49:59;10.20;99.90
8565;DHT22;4320;51.498;6.556;2023-11-21T02:52:24;10.20;99.90
8565;DHT22;4320;51.498;6.556;2023-11-21T02:54:50;10.20;99.90
8565;DHT22;4320;51.498;6.556;2023-11-21T02:57:16;10.30;99.90
8565;DHT22;4320;51.498;6.556;2023-11-21T02:59:42;10.30;99.90
8565;DHT22;4320;51.498;6.556;2023-11-21T03:02:08;10.40;99.90
8565;DHT22;4320;51.498;6.556;2023-11-21T03:04:34;10.50;99.90
8565;DHT22;4320;51.498;6.556;2023-11-21T03:07:00;10.50;99.90
8565;DHT22;4320;51.498;6.556;2023-11-21T03:09:26;10.40;99.90
8565;DHT22;4320;51.498;6.556;2023-11-21T03:11:53;10.40;99.90
8565;DHT22;4320;51.498;6.556;2023-11-21T03:14:19;10.50;99.90
8565;DHT22;4320;51.498;6.556;2023-11-21T03:16:45;10.50;99.90
8565;DHT22;4320;51.498;6.556;2023-11-21T03:19:11;10.50;99.90
8565;DHT22;4320;51.498;6.556;2023-11-21T03:21:37;10.50;99.90
8565;DHT22;4320;51.498;6.556;2023-11-21T03:24:03;10.50;99.90
8565;DHT22;4320;51.498;6.556;2023-11-21T03:26:29;10.40;99.90
8565;DHT22;4320;51.498;6.556;2023-11-21T03:28:55;10.10;99.90
8565;DHT22;4320;51.498;6.556;2023-11-21T03:31:21;10.00;99.90
8565;DHT22;4320;51.498;6.556;2023-11-21T03:33:46;9.90;99.90
8565;DHT22;4320;51.498;6.556;2023-11-21T03:36:13;9.80;99.90
8565;DHT22;4320;51.498;6.556;2023-11-21T03:38:40;9.90;99.90
8565;DHT22;4320;51.498;6.556;2023-11-21T03:41:06;10.00;99.90
8565;DHT22;4320;51.498;6.556;2023-11-21T03:43:31;10.00;99.90
8565;DHT22;4320;51.498;6.556;2023-11-21T03:45:57;10.10;99.90
8565;DHT22;4320;51.498;6.556;2023-11-21T03:48:23;10.10;99.90
8565;DHT22;4320;51.498;6.556;2023-11-21T03:50:48;10.10;99.90
8565;DHT22;4320;51.498;6.556;2023-11-21T03:53:14;10.30;99.90
8565;DHT22;4320;51.498;6.556;2023-11-21T03:55:40;10.30;99.90
8565;DHT22;4320;51.498;6.556;2023-11-21T03:58:05;10.30;99.90
8565;DHT22;4320;51.498;6.556;2023-11-21T04:00:31;10.30;99.90
8565;DHT22;4320;51.498;6.556;2023-11-21T04:02:56;10.30;99.90
8565;DHT22;4320;51.498;6.556;2023-11-21T04:07:51;10.40;99.90
8565;DHT22;4320;51.498;6.556;2023-11-21T04:10:17;10.40;99.90
8565;DHT22;4320;51.498;6.556;2023-11-21T04:12:43;10.40;99.90
8565;DHT22;4320;51.498;6.556;2023-11-21T04:15:10;10.40;99.90
8565;DHT22;4320;51.498;6.556;2023-11-21T04:17:36;10.40;99.90
8565;DHT22;4320;51.498;6.556;2023-11-21T04:20:03;10.40;99.90
8565;DHT22;4320;51.498;6.556;2023-11-21T04:22:33;10.30;99.90
8565;DHT22;4320;51.498;6.556;2023-11-21T04:24:59;10.30;99.90
8565;DHT22;4320;51.498;6.556;2023-11-21T04:27:24;10.30;99.90
8565;DHT22;4320;51.498;6.556;2023-11-21T04:29:50;10.20;99.90
8565;DHT22;4320;51.498;6.556;2023-11-21T04:32:16;10.20;99.90
8565;DHT22;4320;51.498;6.556;2023-11-21T04:34:41;10.20;99.90
8565;DHT22;4320;51.498;6.556;2023-11-21T04:37:07;10.20;99.90
8565;DHT22;4320;51.498;6.556;2023-11-21T04:39:32;10.20;99.90
8565;DHT22;4320;51.498;6.556;2023-11-21T04:41:58;10.20;99.90
8565;DHT22;4320;51.498;6.556;2023-11-21T04:44:23;10.20;99.90
8565;DHT22;4320;51.498;6.556;2023-11-21T04:46:49;10.10;99.90
8565;DHT22;4320;51.498;6.556;2023-11-21T04:49:14;10.10;99.90
8565;DHT22;4320;51.498;6.556;2023-11-21T04:51:40;10.10;99.90
8565;DHT22;4320;51.498;6.556;2023-11-21T04:54:06;10.20;99.90
8565;DHT22;4320;51.498;6.556;2023-11-21T04:56:31;10.30;99.90
8565;DHT22;4320;51.498;6.556;2023-11-21T04:58:57;10.20;99.90
8565;DHT22;4320;51.498;6.556;2023-11-21T05:01:22;10.00;99.90
8565;DHT22;4320;51.498;6.556;2023-11-21T05:03:48;10.10;99.90
8565;DHT22;4320;51.498;6.556;2023-11-21T05:06:14;10.00;99.90
8565;DHT22;4320;51.498;6.556;2023-11-21T05:08:40;10.00;99.90
8565;DHT22;4320;51.498;6.556;2023-11-21T05:11:06;9.90;99.90
8565;DHT22;4320;51.498;6.556;2023-11-21T05:13:34;9.80;99.90
8565;DHT22;4320;51.498;6.556;2023-11-21T05:16:00;9.90;99.90
8565;DHT22;4320;51.498;6.556;2023-11-21T05:18:25;9.80;99.90
8565;DHT22;4320;51.498;6.556;2023-11-21T05:20:52;9.90;99.90
8565;DHT22;4320;51.498;6.556;2023-11-21T05:23:19;9.80;99.90
8565;DHT22;4320;51.498;6.556;2023-11-21T05:25:44;9.60;99.90
8565;DHT22;4320;51.498;6.556;2023-11-21T05:28:11;9.50;99.90
8565;DHT22;4320;51.498;6.556;2023-11-21T05:30:37;9.50;99.90
8565;DHT22;4320;51.498;6.556;2023-11-21T05:33:04;9.80;99.90
8565;DHT22;4320;51.498;6.556;2023-11-21T05:35:30;9.80;99.90
8565;DHT22;4320;51.498;6.556;2023-11-21T05:37:56;9.80;99.90
8565;DHT22;4320;51.498;6.556;2023-11-21T05:40:22;9.90;99.90
8565;DHT22;4320;51.498;6.556;2023-11-21T05:42:48;9.90;99.90
8565;DHT22;4320;51.498;6.556;2023-11-21T05:45:14;10.10;99.90
8565;DHT22;4320;51.498;6.556;2023-11-21T05:47:42;10.00;99.90
8565;DHT22;4320;51.498;6.556;2023-11-21T05:50:10;10.10;99.90
8565;DHT22;4320;51.498;6.556;2023-11-21T05:52:41;10.10;99.90
8565;DHT22;4320;51.498;6.556;2023-11-21T05:55:07;10.20;99.90
8565;DHT22;4320;51.498;6.556;2023-11-21T05:57:34;10.20;99.90
8565;DHT22;4320;51.498;6.556;2023-11-21T06:00:03;10.20;99.90
8565;DHT22;4320;51.498;6.556;2023-11-21T06:02:35;10.10;99.90
8565;DHT22;4320;51.498;6.556;2023-11-21T06:49:16;9.90;99.90
8565;DHT22;4320;51.498;6.556;2023-11-21T06:51:42;10.00;99.90
8565;DHT22;4320;51.498;6.556;2023-11-21T06:54:07;10.10;99.90
8565;DHT22;4320;51.498;6.556;2023-11-21T06:56:33;10.20;99.90
8565;DHT22;4320;51.498;6.556;2023-11-21T06:58:59;10.30;99.90
8565;DHT22;4320;51.498;6.556;2023-11-21T07:01:24;10.40;99.90
8565;DHT22;4320;51.498;6.556;2023-11-21T07:03:50;10.30;99.90
8565;DHT22;4320;51.498;6.556;2023-11-21T07:06:15;10.20;99.90
8565;DHT22;4320;51.498;6.556;2023-11-21T07:08:42;10.00;99.90
8565;DHT22;4320;51.498;6.556;2023-11-21T07:11:08;9.80;99.90
8565;DHT22;4320;51.498;6.556;2023-11-21T07:13:33;9.90;99.90
8565;DHT22;4320;51.498;6.556;2023-11-21T07:15:59;10.00;99.90
8565;DHT22;4320;51.498;6.556;2023-11-21T07:18:25;10.10;99.90
8565;DHT22;4320;51.498;6.556;2023-11-21T07:20:50;9.80;99.90
8565;DHT22;4320;51.498;6.556;2023-11-21T07:23:17;9.80;99.90
8565;DHT22;4320;51.498;6.556;2023-11-21T07:25:42;10.00;99.90
8565;DHT22;4320;51.498;6.556;2023-11-21T07:28:08;10.00;99.90
8565;DHT22;4320;51.498;6.556;2023-11-21T07:30:34;10.10;99.90
8565;DHT22;4320;51.498;6.556;2023-11-21T07:33:00;10.10;99.90
8565;DHT22;4320;51.498;6.556;2023-11-21T07:35:26;10.20;99.90
8565;DHT22;4320;51.498;6.556;2023-11-21T07:37:52;10.20;99.90
8565;DHT22;4320;51.498;6.556;2023-11-21T07:40:17;10.20;99.90
8565;DHT22;4320;51.498;6.556;2023-11-21T07:42:43;10.20;99.90
8565;DHT22;4320;51.498;6.556;2023-11-21T07:45:09;10.30;99.90
8565;DHT22;4320;51.498;6.556;2023-11-21T07:47:34;10.10;99.90
8565;DHT22;4320;51.498;6.556;2023-11-21T07:50:04;9.80;99.90
8565;DHT22;4320;51.498;6.556;2023-11-21T07:52:29;9.90;99.90
8565;DHT22;4320;51.498;6.556;2023-11-21T07:54:55;10.10;99.90
8565;DHT22;4320;51.498;6.556;2023-11-21T07:57:21;10.00;99.90
8565;DHT22;4320;51.498;6.556;2023-11-21T07:59:47;9.80;99.90
8565;DHT22;4320;51.498;6.556;2023-11-21T08:02:12;9.80;99.90
8565;DHT22;4320;51.498;6.556;2023-11-21T08:04:38;9.80;99.90
8565;DHT22;4320;51.498;6.556;2023-11-21T08:07:03;9.80;99.90
8565;DHT22;4320;51.498;6.556;2023-11-21T08:09:29;9.70;99.90
8565;DHT22;4320;51.498;6.556;2023-11-21T08:11:55;9.50;99.90
8565;DHT22;4320;51.498;6.556;2023-11-21T08:14:22;9.60;99.90
8565;DHT22;4320;51.498;6.556;2023-11-21T08:16:47;9.90;99.90
8565;DHT22;4320;51.498;6.556;2023-11-21T08:19:13;9.80;99.90
8565;DHT22;4320;51.498;6.556;2023-11-21T08:21:38;10.00;99.90
8565;DHT22;4320;51.498;6.556;2023-11-21T08:24:06;9.90;99.90
8565;DHT22;4320;51.498;6.556;2023-11-21T08:26:36;10.10;99.90
8565;DHT22;4320;51.498;6.556;2023-11-21T08:29:01;10.00;99.90
8565;DHT22;4320;51.498;6.556;2023-11-21T08:31:28;10.20;99.90
8565;DHT22;4320;51.498;6.556;2023-11-21T08:33:54;10.30;99.90
8565;DHT22;4320;51.498;6.556;2023-11-21T08:36:24;10.40;99.90
8565;DHT22;4320;51.498;6.556;2023-11-21T08:38:50;10.30;99.90
8565;DHT22;4320;51.498;6.556;2023-11-21T08:41:17;10.40;99.90
8565;DHT22;4320;51.498;6.556;2023-11-21T08:43:43;10.20;99.90
8565;DHT22;4320;51.498;6.556;2023-11-21T08:46:10;10.00;99.90
8565;DHT22;4320;51.498;6.556;2023-11-21T08:48:40;9.80;99.90
8565;DHT22;4320;51.498;6.556;2023-11-21T08:51:06;9.80;99.90
8565;DHT22;4320;51.498;6.556;2023-11-21T08:53:32;10.00;99.90
8565;DHT22;4320;51.498;6.556;2023-11-21T08:55:58;10.00;99.90
8565;DHT22;4320;51.498;6.556;2023-11-21T08:58:24;10.40;99.90
8565;DHT22;4320;51.498;6.556;2023-11-21T09:00:49;10.50;99.90
8565;DHT22;4320;51.498;6.556;2023-11-21T09:03:15;10.60;99.90
8565;DHT22;4320;51.498;6.556;2023-11-21T09:05:41;10.60;99.90
8565;DHT22;4320;51.498;6.556;2023-11-21T09:08:06;10.70;99.90
8565;DHT22;4320;51.498;6.556;2023-11-21T09:10:33;10.80;99.90
8565;DHT22;4320;51.498;6.556;2023-11-21T09:13:01;10.70;99.90
8565;DHT22;4320;51.498;6.556;2023-11-21T09:15:27;10.80;99.90
8565;DHT22;4320;51.498;6.556;2023-11-21T09:17:53;10.90;99.90
8565;DHT22;4320;51.498;6.556;2023-11-21T09:20:18;10.70;99.90
8565;DHT22;4320;51.498;6.556;2023-11-21T09:22:48;10.70;99.90
8565;DHT22;4320;51.498;6.556;2023-11-21T09:25:14;10.50;99.90
8565;DHT22;4320;51.498;6.556;2023-11-21T09:27:40;10.60;99.90
8565;DHT22;4320;51.498;6.556;2023-11-21T09:30:07;10.70;99.90
8565;DHT22;4320;51.498;6.556;2023-11-21T09:32:37;10.60;99.90
8565;DHT22;4320;51.498;6.556;2023-11-21T09:35:04;10.80;99.90
8565;DHT22;4320;51.498;6.556;2023-11-21T09:37:30;10.90;99.90
8565;DHT22;4320;51.498;6.556;2023-11-21T09:39:56;11.00;99.90
8565;DHT22;4320;51.498;6.556;2023-11-21T09:42:36;10.80;99.90
8565;DHT22;4320;51.498;6.556;2023-11-21T09:47:39;10.90;99.90
8565;DHT22;4320;51.498;6.556;2023-11-21T09:50:05;11.00;99.90
8565;DHT22;4320;51.498;6.556;2023-11-21T09:53:21;11.10;99.90
8565;DHT22;4320;51.498;6.556;2023-11-21T09:55:27;11.20;99.90
8565;DHT22;4320;51.498;6.556;2023-11-21T09:57:57;11.10;99.90
8565;DHT22;4320;51.498;6.556;2023-11-21T10:00:23;11.20;99.90
8565;DHT22;4320;51.498;6.556;2023-11-21T10:02:49;11.30;99.90
8565;DHT22;4320;51.498;6.556;2023-11-21T10:05:16;11.20;99.90
8565;DHT22;4320;51.498;6.556;2023-11-21T10:07:46;11.10;99.90
8565;DHT22;4320;51.498;6.556;2023-11-21T10:10:13;11.00;99.90
8565;DHT22;4320;51.498;6.556;2023-11-21T10:12:41;11.00;99.90
8565;DHT22;4320;51.498;6.556;2023-11-21T10:15:08;11.00;99.90
8565;DHT22;4320;51.498;6.556;2023-11-21T10:17:38;11.10;99.90
8565;DHT22;4320;51.498;6.556;2023-11-21T10:20:11;11.40;99.90
8565;DHT22;4320;51.498;6.556;2023-11-21T10:22:40;11.70;99.90
8565;DHT22;4320;51.498;6.556;2023-11-21T10:25:07;11.70;99.90
8565;DHT22;4320;51.498;6.556;2023-11-21T10:27:37;11.30;99.90
8565;DHT22;4320;51.498;6.556;2023-11-21T10:30:05;11.10;99.90
8565;DHT22;4320;51.498;6.556;2023-11-21T10:32:31;11.00;99.90
8565;DHT22;4320;51.498;6.556;2023-11-21T10:34:59;11.00;99.90
8565;DHT22;4320;51.498;6.556;2023-11-21T10:37:26;11.00;99.90
8565;DHT22;4320;51.498;6.556;2023-11-21T10:39:58;10.90;99.90
8565;DHT22;4320;51.498;6.556;2023-11-21T10:42:24;11.10;99.90
8565;DHT22;4320;51.498;6.556;2023-11-21T10:44:50;11.40;99.90
8565;DHT22;4320;51.498;6.556;2023-11-21T10:47:16;11.60;99.90
8565;DHT22;4320;51.498;6.556;2023-11-21T10:49:44;11.70;99.90
8565;DHT22;4320;51.498;6.556;2023-11-21T10:52:13;11.60;99.90
8565;DHT22;4320;51.498;6.556;2023-11-21T10:54:43;11.60;99.90
8565;DHT22;4320;51.498;6.556;2023-11-21T10:57:10;11.50;99.90
8565;DHT22;4320;51.498;6.556;2023-11-21T10:59:36;11.50;99.90
8565;DHT22;4320;51.498;6.556;2023-11-21T11:02:18;11.50;99.90
8565;DHT22;4320;51.498;6.556;2023-11-21T11:04:48;11.40;99.90
8565;DHT22;4320;51.498;6.556;2023-11-21T11:07:15;11.50;99.90
8565;DHT22;4320;51.498;6.556;2023-11-21T11:09:41;11.60;99.90
8565;DHT22;4320;51.498;6.556;2023-11-21T11:12:08;11.50;99.90
8565;DHT22;4320;51.498;6.556;2023-11-21T11:14:35;11.50;99.90
8565;DHT22;4320;51.498;6.556;2023-11-21T11:17:02;11.60;99.90
8565;DHT22;4320;51.498;6.556;2023-11-21T11:19:29;11.50;99.90
8565;DHT22;4320;51.498;6.556;2023-11-21T11:22:07;11.50;99.90
8565;DHT22;4320;51.498;6.556;2023-11-21T11:24:57;11.50;99.90
8565;DHT22;4320;51.498;6.556;2023-11-21T11:27:44;11.40;99.90
8565;DHT22;4320;51.498;6.556;2023-11-21T11:30:37;11.40;99.90
8565;DHT22;4320;51.498;6.556;2023-11-21T11:38:23;11.40;99.90
8565;DHT22;4320;51.498;6.556;2023-11-21T11:40:52;11.50;99.90
8565;DHT22;4320;51.498;6.556;2023-11-21T11:43:25;11.50;99.90
8565;DHT22;4320;51.498;6.556;2023-11-21T11:45:51;11.50;99.90
8565;DHT22;4320;51.498;6.556;2023-11-21T11:48:21;11.60;99.90
8565;DHT22;4320;51.498;6.556;2023-11-21T11:51:13;11.50;99.90
8565;DHT22;4320;51.498;6.556;2023-11-21T11:53:47;11.70;99.90
8565;DHT22;4320;51.498;6.556;2023-11-21T11:56:30;11.90;99.90
8565;DHT22;4320;51.498;6.556;2023-11-21T11:59:00;11.70;99.90
8565;DHT22;4320;51.498;6.556;2023-11-21T12:01:28;12.00;99.90
8565;DHT22;4320;51.498;6.556;2023-11-21T12:07:00;12.30;99.90
8565;DHT22;4320;51.498;6.556;2023-11-21T12:09:28;12.10;99.90
8565;DHT22;4320;51.498;6.556;2023-11-21T12:11:56;12.00;99.90
8565;DHT22;4320;51.498;6.556;2023-11-21T12:14:25;12.10;99.90
8565;DHT22;4320;51.498;6.556;2023-11-21T12:16:51;12.30;99.90
8565;DHT22;4320;51.498;6.556;2023-11-21T12:19:17;12.30;99.90
8565;DHT22;4320;51.498;6.556;2023-11-21T12:21:43;12.10;99.90
8565;DHT22;4320;51.498;6.556;2023-11-21T12:24:09;12.10;99.90
8565;DHT22;4320;51.498;6.556;2023-11-21T12:26:35;11.90;99.90
8565;DHT22;4320;51.498;6.556;2023-11-21T12:29:04;11.80;99.90
8565;DHT22;4320;51.498;6.556;2023-11-21T12:31:33;11.80;99.90
8565;DHT22;4320;51.498;6.556;2023-11-21T12:34:00;11.60;99.90
8565;DHT22;4320;51.498;6.556;2023-11-21T12:36:26;11.60;99.90
8565;DHT22;4320;51.498;6.556;2023-11-21T12:38:51;11.60;99.90
8565;DHT22;4320;51.498;6.556;2023-11-21T12:41:17;11.60;99.90
8565;DHT22;4320;51.498;6.556;2023-11-21T12:43:43;11.70;99.90
8565;DHT22;4320;51.498;6.556;2023-11-21T12:46:10;11.70;99.90
8565;DHT22;4320;51.498;6.556;2023-11-21T12:48:41;11.50;99.90
8565;DHT22;4320;51.498;6.556;2023-11-21T12:51:10;11.50;99.90
8565;DHT22;4320;51.498;6.556;2023-11-21T12:53:40;11.60;99.90
8565;DHT22;4320;51.498;6.556;2023-11-21T12:56:07;11.60;99.90
8565;DHT22;4320;51.498;6.556;2023-11-21T12:58:35;11.70;99.90
8565;DHT22;4320;51.498;6.556;2023-11-21T13:01:01;11.80;99.90
8565;DHT22;4320;51.498;6.556;2023-11-21T13:03:29;11.80;99.90
8565;DHT22;4320;51.498;6.556;2023-11-21T13:05:55;11.80;99.90
8565;DHT22;4320;51.498;6.556;2023-11-21T13:08:23;11.80;99.90
8565;DHT22;4320;51.498;6.556;2023-11-21T13:10:53;11.60;99.90
8565;DHT22;4320;51.498;6.556;2023-11-21T13:13:21;11.60;99.90
8565;DHT22;4320;51.498;6.556;2023-11-21T13:15:53;11.70;99.90
8565;DHT22;4320;51.498;6.556;2023-11-21T13:18:25;11.70;99.90
8565;DHT22;4320;51.498;6.556;2023-11-21T13:20:57;11.60;99.90
8565;DHT22;4320;51.498;6.556;2023-11-21T13:23:24;11.60;99.90
8565;DHT22;4320;51.498;6.556;2023-11-21T13:25:51;11.70;99.90
8565;DHT22;4320;51.498;6.556;2023-11-21T13:28:17;11.60;99.90
8565;DHT22;4320;51.498;6.556;2023-11-21T13:30:47;11.50;99.90
8565;DHT22;4320;51.498;6.556;2023-11-21T13:33:14;11.40;99.90
8565;DHT22;4320;51.498;6.556;2023-11-21T13:35:44;11.50;99.90
8565;DHT22;4320;51.498;6.556;2023-11-21T13:38:19;11.50;99.90
8565;DHT22;4320;51.498;6.556;2023-11-21T13:40:52;11.60;99.90
8565;DHT22;4320;51.498;6.556;2023-11-21T13:43:23;11.50;99.90
8565;DHT22;4320;51.498;6.556;2023-11-21T13:45:52;11.50;99.90
8565;DHT22;4320;51.498;6.556;2023-11-21T13:48:29;11.50;99.90
8565;DHT22;4320;51.498;6.556;2023-11-21T13:51:06;11.50;99.90
8565;DHT22;4320;51.498;6.556;2023-11-21T13:53:46;11.60;99.90
8565;DHT22;4320;51.498;6.556;2023-11-21T13:56:20;11.60;99.90
8565;DHT22;4320;51.498;6.556;2023-11-21T13:58:50;11.70;99.90
8565;DHT22;4320;51.498;6.556;2023-11-21T14:01:23;11.70;99.90
8565;DHT22;4320;51.498;6.556;2023-11-21T14:04:03;11.70;99.90
8565;DHT22;4320;51.498;6.556;2023-11-21T14:06:43;11.70;99.90
8565;DHT22;4320;51.498;6.556;2023-11-21T14:09:17;11.60;99.90
8565;DHT22;4320;51.498;6.556;2023-11-21T14:11:54;11.70;99.90
8565;DHT22;4320;51.498;6.556;2023-11-21T14:14:25;11.70;99.90
8565;DHT22;4320;51.498;6.556;2023-11-21T14:16:52;11.50;99.90
8565;DHT22;4320;51.498;6.556;2023-11-21T14:19:18;11.50;99.90
8565;DHT22;4320;51.498;6.556;2023-11-21T14:21:47;11.50;99.90
8565;DHT22;4320;51.498;6.556;2023-11-21T14:24:15;11.50;99.90
8565;DHT22;4320;51.498;6.556;2023-11-21T14:26:44;11.50;99.90
8565;DHT22;4320;51.498;6.556;2023-11-21T14:29:14;11.60;99.90
8565;DHT22;4320;51.498;6.556;2023-11-21T14:31:42;11.60;99.90
8565;DHT22;4320;51.498;6.556;2023-11-21T14:34:09;11.40;99.90
8565;DHT22;4320;51.498;6.556;2023-11-21T14:36:36;11.60;99.90
8565;DHT22;4320;51.498;6.556;2023-11-21T14:39:09;11.60;99.90
8565;DHT22;4320;51.498;6.556;2023-11-21T14:41:45;11.40;99.90
8565;DHT22;4320;51.498;6.556;2023-11-21T14:44:11;11.50;99.90
8565;DHT22;4320;51.498;6.556;2023-11-21T14:46:38;11.60;99.90
8565;DHT22;4320;51.498;6.556;2023-11-21T14:49:05;11.50;99.90
8565;DHT22;4320;51.498;6.556;2023-11-21T14:51:51;11.50;99.90
8565;DHT22;4320;51.498;6.556;2023-11-21T14:54:27;11.50;99.90
8565;DHT22;4320;51.498;6.556;2023-11-21T14:57:09;11.50;99.90
8565;DHT22;4320;51.498;6.556;2023-11-21T14:59:42;11.40;99.90
8565;DHT22;4320;51.498;6.556;2023-11-21T15:02:08;11.40;99.90
8565;DHT22;4320;51.498;6.556;2023-11-21T15:04:43;11.30;99.90
8565;DHT22;4320;51.498;6.556;2023-11-21T15:07:09;11.20;99.90
8565;DHT22;4320;51.498;6.556;2023-11-21T15:09:37;11.10;99.90
8565;DHT22;4320;51.498;6.556;2023-11-21T15:12:10;11.20;99.90
8565;DHT22;4320;51.498;6.556;2023-11-21T15:14:47;11.20;99.90
8565;DHT22;4320;51.498;6.556;2023-11-21T15:17:15;11.20;99.90
8565;DHT22;4320;51.498;6.556;2023-11-21T15:19:56;11.20;99.90
8565;DHT22;4320;51.498;6.556;2023-11-21T15:22:22;11.10;99.90
8565;DHT22;4320;51.498;6.556;2023-11-21T15:24:48;11.10;99.90
8565;DHT22;4320;51.498;6.556;2023-11-21T15:27:15;11.10;99.90
8565;DHT22;4320;51.498;6.556;2023-11-21T15:29:42;11.10;99.90
8565;DHT22;4320;51.498;6.556;2023-11-21T15:32:09;11.20;99.90
8565;DHT22;4320;51.498;6.556;2023-11-21T15:34:35;11.10;99.90
8565;DHT22;4320;51.498;6.556;2023-11-21T15:37:01;11.20;99.90
8565;DHT22;4320;51.498;6.556;2023-11-21T15:39:28;11.00;99.90
8565;DHT22;4320;51.498;6.556;2023-11-21T15:41:56;10.90;99.90
8565;DHT22;4320;51.498;6.556;2023-11-21T15:44:22;11.00;99.90
8565;DHT22;4320;51.498;6.556;2023-11-21T15:46:48;11.00;99.90
8565;DHT22;4320;51.498;6.556;2023-11-21T15:49:14;11.10;99.90
8565;DHT22;4320;51.498;6.556;2023-11-21T15:51:43;11.20;99.90
8565;DHT22;4320;51.498;6.556;2023-11-21T15:54:22;11.10;99.90
8565;DHT22;4320;51.498;6.556;2023-11-21T15:56:48;11.00;99.90
8565;DHT22;4320;51.498;6.556;2023-11-21T15:59:14;10.90;99.90
8565;DHT22;4320;51.498;6.556;2023-11-21T16:01:42;10.80;99.90
8565;DHT22;4320;51.498;6.556;2023-11-21T16:04:10;10.90;99.90
8565;DHT22;4320;51.498;6.556;2023-11-21T16:06:37;10.90;99.90
8565;DHT22;4320;51.498;6.556;2023-11-21T16:09:05;10.90;99.90
8565;DHT22;4320;51.498;6.556;2023-11-21T16:11:31;10.80;99.90
8565;DHT22;4320;51.498;6.556;2023-11-21T16:13:59;10.90;99.90
8565;DHT22;4320;51.498;6.556;2023-11-21T16:16:25;10.80;99.90
8565;DHT22;4320;51.498;6.556;2023-11-21T16:18:51;10.80;99.90
8565;DHT22;4320;51.498;6.556;2023-11-21T16:21:16;10.80;99.90
8565;DHT22;4320;51.498;6.556;2023-11-21T16:23:42;10.80;99.90
8565;DHT22;4320;51.498;6.556;2023-11-21T16:26:08;10.70;99.90
8565;DHT22;4320;51.498;6.556;2023-11-21T16:28:34;10.60;99.90
8565;DHT22;4320;51.498;6.556;2023-11-21T16:30:59;10.60;99.90
8565;DHT22;4320;51.498;6.556;2023-11-21T16:33:25;10.60;99.90
8565;DHT22;4320;51.498;6.556;2023-11-21T16:35:51;10.60;99.90
8565;DHT22;4320;51.498;6.556;2023-11-21T16:38:17;10.40;99.90
8565;DHT22;4320;51.498;6.556;2023-11-21T16:40:44;10.40;99.90
8565;DHT22;4320;51.498;6.556;2023-11-21T16:43:11;10.20;99.90
8565;DHT22;4320;51.498;6.556;2023-11-21T16:45:36;10.20;99.90
8565;DHT22;4320;51.498;6.556;2023-11-21T16:48:02;10.10;99.90
8565;DHT22;4320;51.498;6.556;2023-11-21T16:50:29;10.10;99.90
8565;DHT22;4320;51.498;6.556;2023-11-21T16:52:54;9.90;99.90
8565;DHT22;4320;51.498;6.556;2023-11-21T16:55:20;9.70;99.90
8565;DHT22;4320;51.498;6.556;2023-11-21T16:57:45;9.60;99.90
8565;DHT22;4320;51.498;6.556;2023-11-21T17:00:11;9.50;99.90
8565;DHT22;4320;51.498;6.556;2023-11-21T17:02:38;9.50;99.90
8565;DHT22;4320;51.498;6.556;2023-11-21T17:05:05;9.40;99.90